| time (UTC) | temp F | wind direction | speed knots | gust knots | rain 1hr in | rain 24hr in | rain mn in | humidity % | barometer mb |
| 20260906043040 | 69 | 213 | 0.9 | 1.7 | 0.00 | 0.25 | 0.00 | 97 | 1014.4 |
| 20260906041539 | 70 | 271 | 0.0 | 1.7 | 0.00 | 0.25 | 0.00 | 97 | 1014.6 |
| 20260906040039 | 69 | 311 | 0.0 | 1.7 | 0.00 | 0.25 | 0.00 | 97 | 1014.8 |
| 20260906034545 | 69 | 0 | 0.0 | 0.9 | 0.00 | 0.25 | 0.25 | 97 | 1014.8 |
| 20260906033038 | 69 | 207 | 0.0 | 0.9 | 0.00 | 0.25 | 0.25 | 97 | 1015.0 |
| 20260906031538 | 70 | 0 | 0.0 | 0.9 | 0.00 | 0.25 | 0.25 | 97 | 1015.3 |
| 20260906030036 | 69 | 0 | 0.0 | 0.0 | 0.00 | 0.25 | 0.25 | 97 | 1015.1 |
| 20260906023048 | 70 | 0 | 0.0 | 1.7 | 0.00 | 0.25 | 0.25 | 97 | 1014.9 |
| 20260906021537 | 71 | 221 | 0.0 | 0.9 | 0.00 | 0.25 | 0.25 | 97 | 1014.8 |
| 20260906020046 | 71 | 0 | 0.0 | 0.9 | 0.00 | 0.25 | 0.25 | 96 | 1014.6 |
| 20260906014551 | 71 | 143 | 1.7 | 1.7 | 0.00 | 0.25 | 0.25 | 97 | 1014.4 |
| 20260906013039 | 71 | 262 | 0.0 | 1.7 | 0.00 | 0.25 | 0.25 | 97 | 1014.5 |
| 20260906010039 | 72 | 0 | 0.0 | 1.7 | 0.00 | 0.25 | 0.25 | 96 | 1014.2 |
| 20260906004542 | 73 | 0 | 0.0 | 1.7 | 0.00 | 0.25 | 0.25 | 95 | 1014.0 |
| 20260906003048 | 73 | 279 | 0.0 | 0.9 | 0.00 | 0.25 | 0.25 | 95 | 1013.7 |
| 20260906000039 | 75 | 0 | 0.0 | 0.9 | 0.00 | 0.25 | 0.25 | 94 | 1013.4 |
| 20260905234538 | 76 | 0 | 0.0 | 1.7 | 0.00 | 0.25 | 0.25 | 93 | 1013.2 |
| 20260905230039 | 79 | 274 | 0.0 | 2.6 | 0.00 | 0.25 | 0.25 | 88 | 1012.8 |
| 20260905223037 | 82 | 314 | 0.0 | 2.6 | 0.00 | 0.25 | 0.25 | 82 | 1012.7 |
| 20260905221536 | 83 | 148 | 0.9 | 4.3 | 0.00 | 0.25 | 0.25 | 77 | 1012.7 |
| 20260905214538 | 85 | 318 | 1.7 | 5.2 | 0.00 | 0.25 | 0.25 | 72 | 1013.1 |
| 20260905211543 | 84 | 286 | 0.9 | 2.6 | 0.00 | 0.25 | 0.25 | 80 | 1013.2 |
| 20260905210040 | 84 | 179 | 0.0 | 4.3 | 0.00 | 0.25 | 0.25 | 77 | 1013.5 |
| 20260905203043 | 79 | 0 | 0.0 | 0.9 | 0.00 | 0.25 | 0.25 | 88 | 1013.9 |
| 20260905194545 | 73 | 269 | 0.9 | 2.6 | 0.00 | 0.25 | 0.25 | 92 | 1014.5 |
| 20260905184541 | 71 | 115 | 0.0 | 3.5 | 0.25 | 0.25 | 0.25 | 92 | 1014.5 |
| 20260905181541 | 74 | 250 | 2.6 | 13.9 | 0.25 | 0.25 | 0.25 | 88 | 1015.6 |
| 20260905173037 | 88 | 177 | 1.7 | 3.5 | 0.00 | 0.00 | 0.00 | 76 | 1014.9 |
| 20260905154538 | 91 | 353 | 0.9 | 5.2 | 0.00 | 0.00 | 0.00 | 68 | 1015.8 |
| 20260905150044 | 89 | 102 | 0.0 | 1.7 | 0.00 | 0.00 | 0.00 | 71 | 1015.5 |
| 20260905141538 | 85 | 109 | 0.0 | 1.7 | 0.00 | 0.00 | 0.00 | 77 | 1015.8 |
| 20260905133040 | 79 | 0 | 0.0 | 0.9 | 0.00 | 0.00 | 0.00 | 86 | 1016.0 |
| 20260905123038 | 72 | 128 | 0.0 | 0.9 | 0.00 | 0.00 | 0.00 | 94 | 1016.3 |
| 20260905114544 | 68 | 0 | 0.0 | 0.9 | 0.00 | 0.00 | 0.00 | 98 | 1016.1 |
| 20260905104537 | 67 | 0 | 0.0 | 0.9 | 0.00 | 0.00 | 0.00 | 98 | 1015.1 |
| 20260905094539 | 68 | 0 | 0.0 | 0.0 | 0.00 | 0.00 | 0.00 | 97 | 1015.0 |
| 20260905090038 | 68 | 0 | 0.0 | 0.9 | 0.00 | 0.00 | 0.00 | 97 | 1015.1 |
| 20260905080043 | 69 | 0 | 0.0 | 0.9 | 0.00 | 0.00 | 0.00 | 97 | 1015.6 |
| 20260905070039 | 70 | 0 | 0.0 | 0.0 | 0.00 | 0.00 | 0.00 | 97 | 1016.1 |
| 20260905064544 | 70 | 0 | 0.0 | 2.6 | 0.00 | 0.00 | 0.00 | 97 | 1016.2 |
| 20260905054538 | 71 | 0 | 0.0 | 0.0 | 0.00 | 0.00 | 0.00 | 97 | 1016.7 |
| 20260905044540 | 71 | 0 | 0.0 | 0.0 | 0.00 | 0.00 | 0.00 | 97 | 1016.7 |